sensor_id;sensor_type;location;lat;lon;timestamp;temperature;humidity
2897;DHT22;1458;49.728;9.228;2023-07-29T00:01:40;18.10;99.90
2897;DHT22;1458;49.728;9.228;2023-07-29T00:04:08;18.00;99.90
2897;DHT22;1458;49.728;9.228;2023-07-29T00:06:36;18.00;99.90
2897;DHT22;1458;49.728;9.228;2023-07-29T00:09:03;18.00;99.90
2897;DHT22;1458;49.728;9.228;2023-07-29T00:11:31;18.00;99.90
2897;DHT22;1458;49.728;9.228;2023-07-29T00:14:01;17.90;99.90
2897;DHT22;1458;49.728;9.228;2023-07-29T00:16:28;17.90;99.90
2897;DHT22;1458;49.728;9.228;2023-07-29T00:18:56;18.00;99.90
2897;DHT22;1458;49.728;9.228;2023-07-29T00:21:23;18.10;99.90
2897;DHT22;1458;49.728;9.228;2023-07-29T00:23:50;18.10;99.90
2897;DHT22;1458;49.728;9.228;2023-07-29T00:26:18;18.20;99.90
2897;DHT22;1458;49.728;9.228;2023-07-29T00:28:47;18.20;99.90
2897;DHT22;1458;49.728;9.228;2023-07-29T00:31:16;18.30;99.90
2897;DHT22;1458;49.728;9.228;2023-07-29T00:33:43;18.30;99.90
2897;DHT22;1458;49.728;9.228;2023-07-29T00:36:11;18.20;99.90
2897;DHT22;1458;49.728;9.228;2023-07-29T00:38:38;18.20;99.90
2897;DHT22;1458;49.728;9.228;2023-07-29T00:41:06;18.20;99.90
2897;DHT22;1458;49.728;9.228;2023-07-29T00:43:34;18.20;99.90
2897;DHT22;1458;49.728;9.228;2023-07-29T00:46:02;18.20;99.90
2897;DHT22;1458;49.728;9.228;2023-07-29T00:48:31;18.20;99.90
2897;DHT22;1458;49.728;9.228;2023-07-29T00:50:58;18.20;99.90
2897;DHT22;1458;49.728;9.228;2023-07-29T00:53:27;18.30;99.90
2897;DHT22;1458;49.728;9.228;2023-07-29T00:55:54;18.30;99.90
2897;DHT22;1458;49.728;9.228;2023-07-29T00:58:22;18.30;99.90
2897;DHT22;1458;49.728;9.228;2023-07-29T01:00:50;18.30;99.90
2897;DHT22;1458;49.728;9.228;2023-07-29T01:03:17;18.30;99.90
2897;DHT22;1458;49.728;9.228;2023-07-29T01:05:55;18.30;99.90
2897;DHT22;1458;49.728;9.228;2023-07-29T01:08:49;18.30;99.90
2897;DHT22;1458;49.728;9.228;2023-07-29T01:11:29;18.30;99.90
2897;DHT22;1458;49.728;9.228;2023-07-29T01:14:09;18.30;99.90
2897;DHT22;1458;49.728;9.228;2023-07-29T01:16:49;18.30;99.90
2897;DHT22;1458;49.728;9.228;2023-07-29T01:19:31;18.30;99.90
2897;DHT22;1458;49.728;9.228;2023-07-29T01:22:11;18.20;99.90
2897;DHT22;1458;49.728;9.228;2023-07-29T01:24:41;18.10;99.90
2897;DHT22;1458;49.728;9.228;2023-07-29T01:27:08;18.10;99.90
2897;DHT22;1458;49.728;9.228;2023-07-29T01:29:36;18.10;99.90
2897;DHT22;1458;49.728;9.228;2023-07-29T01:32:07;18.10;99.90
2897;DHT22;1458;49.728;9.228;2023-07-29T01:34:43;18.10;99.90
2897;DHT22;1458;49.728;9.228;2023-07-29T01:37:18;18.10;99.90
2897;DHT22;1458;49.728;9.228;2023-07-29T01:39:49;18.00;99.90
2897;DHT22;1458;49.728;9.228;2023-07-29T01:42:18;18.00;99.90
2897;DHT22;1458;49.728;9.228;2023-07-29T01:44:45;18.00;99.90
2897;DHT22;1458;49.728;9.228;2023-07-29T01:47:13;18.00;99.90
2897;DHT22;1458;49.728;9.228;2023-07-29T01:49:40;18.00;99.90
2897;DHT22;1458;49.728;9.228;2023-07-29T01:52:09;17.90;99.90
2897;DHT22;1458;49.728;9.228;2023-07-29T01:54:37;18.00;99.90
2897;DHT22;1458;49.728;9.228;2023-07-29T01:57:06;18.10;99.90
2897;DHT22;1458;49.728;9.228;2023-07-29T01:59:33;18.10;99.90
2897;DHT22;1458;49.728;9.228;2023-07-29T02:02:00;18.00;99.90
2897;DHT22;1458;49.728;9.228;2023-07-29T02:04:28;18.00;99.90
2897;DHT22;1458;49.728;9.228;2023-07-29T02:06:56;18.10;99.90
2897;DHT22;1458;49.728;9.228;2023-07-29T02:09:23;18.10;99.90
2897;DHT22;1458;49.728;9.228;2023-07-29T02:11:51;18.10;99.90
2897;DHT22;1458;49.728;9.228;2023-07-29T02:14:20;18.10;99.90
2897;DHT22;1458;49.728;9.228;2023-07-29T02:16:48;18.20;99.90
2897;DHT22;1458;49.728;9.228;2023-07-29T02:19:15;18.20;99.90
2897;DHT22;1458;49.728;9.228;2023-07-29T02:21:43;18.20;99.90
2897;DHT22;1458;49.728;9.228;2023-07-29T02:24:10;18.10;99.90
2897;DHT22;1458;49.728;9.228;2023-07-29T02:26:38;18.10;99.90
2897;DHT22;1458;49.728;9.228;2023-07-29T02:29:05;18.10;99.90
2897;DHT22;1458;49.728;9.228;2023-07-29T02:31:34;18.10;99.90
2897;DHT22;1458;49.728;9.228;2023-07-29T02:34:03;18.10;99.90
2897;DHT22;1458;49.728;9.228;2023-07-29T02:36:31;18.10;99.90
2897;DHT22;1458;49.728;9.228;2023-07-29T02:38:58;18.00;99.90
2897;DHT22;1458;49.728;9.228;2023-07-29T02:41:26;18.00;99.90
2897;DHT22;1458;49.728;9.228;2023-07-29T02:43:53;18.10;99.90
2897;DHT22;1458;49.728;9.228;2023-07-29T02:46:20;18.00;99.90
2897;DHT22;1458;49.728;9.228;2023-07-29T02:48:50;17.90;99.90
2897;DHT22;1458;49.728;9.228;2023-07-29T02:51:17;17.90;99.90
2897;DHT22;1458;49.728;9.228;2023-07-29T02:53:45;17.80;99.90
2897;DHT22;1458;49.728;9.228;2023-07-29T02:56:12;17.80;99.90
2897;DHT22;1458;49.728;9.228;2023-07-29T02:58:40;17.70;99.90
2897;DHT22;1458;49.728;9.228;2023-07-29T03:01:08;17.60;99.90
2897;DHT22;1458;49.728;9.228;2023-07-29T03:03:36;17.60;99.90
2897;DHT22;1458;49.728;9.228;2023-07-29T03:06:06;17.40;99.90
2897;DHT22;1458;49.728;9.228;2023-07-29T03:08:34;17.40;99.90
2897;DHT22;1458;49.728;9.228;2023-07-29T03:11:05;17.50;99.90
2897;DHT22;1458;49.728;9.228;2023-07-29T03:13:34;17.50;99.90
2897;DHT22;1458;49.728;9.228;2023-07-29T03:16:05;17.50;99.90
2897;DHT22;1458;49.728;9.228;2023-07-29T03:18:33;17.50;99.90
2897;DHT22;1458;49.728;9.228;2023-07-29T03:21:00;17.50;99.90
2897;DHT22;1458;49.728;9.228;2023-07-29T03:23:30;17.50;99.90
2897;DHT22;1458;49.728;9.228;2023-07-29T03:25:59;17.50;99.90
2897;DHT22;1458;49.728;9.228;2023-07-29T03:28:33;17.60;99.90
2897;DHT22;1458;49.728;9.228;2023-07-29T03:31:00;17.60;99.90
2897;DHT22;1458;49.728;9.228;2023-07-29T03:33:29;17.60;99.90
2897;DHT22;1458;49.728;9.228;2023-07-29T03:35:56;17.60;99.90
2897;DHT22;1458;49.728;9.228;2023-07-29T03:38:24;17.60;99.90
2897;DHT22;1458;49.728;9.228;2023-07-29T03:40:53;17.60;99.90
2897;DHT22;1458;49.728;9.228;2023-07-29T03:43:20;17.50;99.90
2897;DHT22;1458;49.728;9.228;2023-07-29T03:45:48;17.50;99.90
2897;DHT22;1458;49.728;9.228;2023-07-29T03:48:15;17.60;99.90
2897;DHT22;1458;49.728;9.228;2023-07-29T03:50:43;17.50;99.90
2897;DHT22;1458;49.728;9.228;2023-07-29T03:53:10;17.50;99.90
2897;DHT22;1458;49.728;9.228;2023-07-29T03:55:37;17.50;99.90
2897;DHT22;1458;49.728;9.228;2023-07-29T03:58:06;17.50;99.90
2897;DHT22;1458;49.728;9.228;2023-07-29T04:00:34;17.50;99.90
2897;DHT22;1458;49.728;9.228;2023-07-29T04:03:01;17.50;99.90
2897;DHT22;1458;49.728;9.228;2023-07-29T04:05:29;17.50;99.90
2897;DHT22;1458;49.728;9.228;2023-07-29T04:07:56;17.50;99.90
2897;DHT22;1458;49.728;9.228;2023-07-29T04:10:24;17.50;99.90
2897;DHT22;1458;49.728;9.228;2023-07-29T04:12:51;17.50;99.90
2897;DHT22;1458;49.728;9.228;2023-07-29T04:15:20;17.50;99.90
2897;DHT22;1458;49.728;9.228;2023-07-29T04:17:47;17.50;99.90
2897;DHT22;1458;49.728;9.228;2023-07-29T04:20:15;17.50;99.90
2897;DHT22;1458;49.728;9.228;2023-07-29T04:22:42;17.60;99.90
2897;DHT22;1458;49.728;9.228;2023-07-29T04:25:10;17.60;99.90
2897;DHT22;1458;49.728;9.228;2023-07-29T04:27:38;17.70;99.90
2897;DHT22;1458;49.728;9.228;2023-07-29T04:30:07;17.70;99.90
2897;DHT22;1458;49.728;9.228;2023-07-29T04:32:36;17.70;99.90
2897;DHT22;1458;49.728;9.228;2023-07-29T04:35:07;17.70;99.90
2897;DHT22;1458;49.728;9.228;2023-07-29T04:37:36;17.80;99.90
2897;DHT22;1458;49.728;9.228;2023-07-29T04:40:05;17.80;99.90
2897;DHT22;1458;49.728;9.228;2023-07-29T04:42:33;17.90;99.90
2897;DHT22;1458;49.728;9.228;2023-07-29T04:45:01;17.80;99.90
2897;DHT22;1458;49.728;9.228;2023-07-29T04:47:31;17.80;99.90
2897;DHT22;1458;49.728;9.228;2023-07-29T04:50:00;17.90;99.90
2897;DHT22;1458;49.728;9.228;2023-07-29T04:52:28;18.00;99.90
2897;DHT22;1458;49.728;9.228;2023-07-29T04:54:55;18.10;99.90
2897;DHT22;1458;49.728;9.228;2023-07-29T04:57:23;18.20;99.90
2897;DHT22;1458;49.728;9.228;2023-07-29T04:59:50;18.30;99.90
2897;DHT22;1458;49.728;9.228;2023-07-29T05:02:17;18.30;99.90
2897;DHT22;1458;49.728;9.228;2023-07-29T05:04:45;18.40;99.90
2897;DHT22;1458;49.728;9.228;2023-07-29T05:07:14;18.40;99.90
2897;DHT22;1458;49.728;9.228;2023-07-29T05:09:42;18.50;99.90
2897;DHT22;1458;49.728;9.228;2023-07-29T05:12:09;18.50;99.90
2897;DHT22;1458;49.728;9.228;2023-07-29T05:14:36;18.50;99.90
2897;DHT22;1458;49.728;9.228;2023-07-29T05:17:04;18.60;99.90
2897;DHT22;1458;49.728;9.228;2023-07-29T05:19:32;18.60;99.90
2897;DHT22;1458;49.728;9.228;2023-07-29T05:22:00;18.70;99.90
2897;DHT22;1458;49.728;9.228;2023-07-29T05:24:29;18.70;99.90
2897;DHT22;1458;49.728;9.228;2023-07-29T05:26:56;18.80;99.90
2897;DHT22;1458;49.728;9.228;2023-07-29T05:29:24;18.80;99.90
2897;DHT22;1458;49.728;9.228;2023-07-29T05:31:51;18.80;99.90
2897;DHT22;1458;49.728;9.228;2023-07-29T05:34:19;18.80;99.90
2897;DHT22;1458;49.728;9.228;2023-07-29T05:36:46;18.80;99.90
2897;DHT22;1458;49.728;9.228;2023-07-29T05:39:14;18.80;99.90
2897;DHT22;1458;49.728;9.228;2023-07-29T05:41:42;18.90;99.90
2897;DHT22;1458;49.728;9.228;2023-07-29T05:44:10;18.90;99.90
2897;DHT22;1458;49.728;9.228;2023-07-29T05:46:37;18.90;99.90
2897;DHT22;1458;49.728;9.228;2023-07-29T05:49:05;18.90;99.90
2897;DHT22;1458;49.728;9.228;2023-07-29T05:51:32;18.80;99.90
2897;DHT22;1458;49.728;9.228;2023-07-29T05:53:59;18.80;99.90
2897;DHT22;1458;49.728;9.228;2023-07-29T05:56:27;18.80;99.90
2897;DHT22;1458;49.728;9.228;2023-07-29T05:58:57;18.80;99.90
2897;DHT22;1458;49.728;9.228;2023-07-29T06:01:24;18.90;99.90
2897;DHT22;1458;49.728;9.228;2023-07-29T06:03:52;18.90;99.90
2897;DHT22;1458;49.728;9.228;2023-07-29T06:06:20;19.00;99.90
2897;DHT22;1458;49.728;9.228;2023-07-29T06:08:49;19.00;99.90
2897;DHT22;1458;49.728;9.228;2023-07-29T06:11:17;18.90;99.90
2897;DHT22;1458;49.728;9.228;2023-07-29T06:13:44;18.80;99.90
2897;DHT22;1458;49.728;9.228;2023-07-29T06:16:15;18.70;99.90
2897;DHT22;1458;49.728;9.228;2023-07-29T06:18:44;18.70;99.90
2897;DHT22;1458;49.728;9.228;2023-07-29T06:21:11;18.70;99.90
2897;DHT22;1458;49.728;9.228;2023-07-29T06:23:42;18.80;99.90
2897;DHT22;1458;49.728;9.228;2023-07-29T06:26:10;18.80;99.90
2897;DHT22;1458;49.728;9.228;2023-07-29T06:28:37;18.80;99.90
2897;DHT22;1458;49.728;9.228;2023-07-29T06:31:04;18.80;99.90
2897;DHT22;1458;49.728;9.228;2023-07-29T06:33:33;18.80;99.90
2897;DHT22;1458;49.728;9.228;2023-07-29T06:36:00;18.90;99.90
2897;DHT22;1458;49.728;9.228;2023-07-29T06:38:28;18.90;99.90
2897;DHT22;1458;49.728;9.228;2023-07-29T06:40:55;18.90;99.90
2897;DHT22;1458;49.728;9.228;2023-07-29T06:43:23;19.00;99.90
2897;DHT22;1458;49.728;9.228;2023-07-29T06:45:50;19.00;99.90
2897;DHT22;1458;49.728;9.228;2023-07-29T06:48:18;19.00;99.90
2897;DHT22;1458;49.728;9.228;2023-07-29T06:50:47;19.00;99.90
2897;DHT22;1458;49.728;9.228;2023-07-29T06:53:16;19.00;99.90
2897;DHT22;1458;49.728;9.228;2023-07-29T06:55:43;19.10;99.90
2897;DHT22;1458;49.728;9.228;2023-07-29T06:58:11;19.10;99.90
2897;DHT22;1458;49.728;9.228;2023-07-29T07:00:38;19.20;99.90
2897;DHT22;1458;49.728;9.228;2023-07-29T07:03:06;19.30;99.90
2897;DHT22;1458;49.728;9.228;2023-07-29T07:05:33;19.50;99.90
2897;DHT22;1458;49.728;9.228;2023-07-29T07:08:02;19.80;99.90
2897;DHT22;1458;49.728;9.228;2023-07-29T07:10:29;20.10;99.90
2897;DHT22;1458;49.728;9.228;2023-07-29T07:12:57;20.30;99.90
2897;DHT22;1458;49.728;9.228;2023-07-29T07:15:25;20.40;99.90
2897;DHT22;1458;49.728;9.228;2023-07-29T07:17:52;20.50;99.90
2897;DHT22;1458;49.728;9.228;2023-07-29T07:20:20;20.60;99.90
2897;DHT22;1458;49.728;9.228;2023-07-29T07:22:47;20.90;99.90
2897;DHT22;1458;49.728;9.228;2023-07-29T07:25:16;20.90;99.90
2897;DHT22;1458;49.728;9.228;2023-07-29T07:27:44;20.70;99.90
2897;DHT22;1458;49.728;9.228;2023-07-29T07:30:11;20.60;99.90
2897;DHT22;1458;49.728;9.228;2023-07-29T07:32:39;20.60;99.90
2897;DHT22;1458;49.728;9.228;2023-07-29T07:35:07;20.70;99.90
2897;DHT22;1458;49.728;9.228;2023-07-29T07:37:34;20.70;99.90
2897;DHT22;1458;49.728;9.228;2023-07-29T07:40:02;20.80;99.90
2897;DHT22;1458;49.728;9.228;2023-07-29T07:42:31;21.10;99.90
2897;DHT22;1458;49.728;9.228;2023-07-29T07:44:59;21.30;99.90
2897;DHT22;1458;49.728;9.228;2023-07-29T07:47:26;21.40;99.90
2897;DHT22;1458;49.728;9.228;2023-07-29T07:49:53;21.30;99.90
2897;DHT22;1458;49.728;9.228;2023-07-29T07:52:21;20.60;99.90
2897;DHT22;1458;49.728;9.228;2023-07-29T07:54:51;19.20;99.90
2897;DHT22;1458;49.728;9.228;2023-07-29T07:57:21;18.40;99.90
2897;DHT22;1458;49.728;9.228;2023-07-29T07:59:49;18.00;99.90
2897;DHT22;1458;49.728;9.228;2023-07-29T08:02:18;17.80;99.90
2897;DHT22;1458;49.728;9.228;2023-07-29T08:04:46;17.80;99.90
2897;DHT22;1458;49.728;9.228;2023-07-29T08:07:13;18.00;99.90
2897;DHT22;1458;49.728;9.228;2023-07-29T08:09:41;18.10;99.90
2897;DHT22;1458;49.728;9.228;2023-07-29T08:12:08;18.10;99.90
2897;DHT22;1458;49.728;9.228;2023-07-29T08:14:36;18.10;99.90
2897;DHT22;1458;49.728;9.228;2023-07-29T08:17:05;18.10;99.90
2897;DHT22;1458;49.728;9.228;2023-07-29T08:19:32;18.10;99.90
2897;DHT22;1458;49.728;9.228;2023-07-29T08:22:02;18.10;99.90
2897;DHT22;1458;49.728;9.228;2023-07-29T08:24:30;18.10;99.90
2897;DHT22;1458;49.728;9.228;2023-07-29T08:26:57;17.80;99.90
2897;DHT22;1458;49.728;9.228;2023-07-29T08:29:24;17.60;99.90
2897;DHT22;1458;49.728;9.228;2023-07-29T08:31:52;17.60;99.90
2897;DHT22;1458;49.728;9.228;2023-07-29T08:34:22;17.50;99.90
2897;DHT22;1458;49.728;9.228;2023-07-29T08:36:49;17.50;99.90
2897;DHT22;1458;49.728;9.228;2023-07-29T08:39:17;17.60;99.90
2897;DHT22;1458;49.728;9.228;2023-07-29T08:41:51;17.70;99.90
2897;DHT22;1458;49.728;9.228;2023-07-29T08:44:25;17.80;99.90
2897;DHT22;1458;49.728;9.228;2023-07-29T08:46:54;18.00;99.90
2897;DHT22;1458;49.728;9.228;2023-07-29T08:49:25;18.10;99.90
2897;DHT22;1458;49.728;9.228;2023-07-29T08:51:54;18.30;99.90
2897;DHT22;1458;49.728;9.228;2023-07-29T08:54:23;18.60;99.90
2897;DHT22;1458;49.728;9.228;2023-07-29T08:56:50;19.00;99.90
2897;DHT22;1458;49.728;9.228;2023-07-29T08:59:19;19.50;99.90
2897;DHT22;1458;49.728;9.228;2023-07-29T09:01:47;20.10;99.90
2897;DHT22;1458;49.728;9.228;2023-07-29T09:04:15;20.30;99.90
2897;DHT22;1458;49.728;9.228;2023-07-29T09:06:47;20.40;99.90
2897;DHT22;1458;49.728;9.228;2023-07-29T09:09:17;20.70;99.90
2897;DHT22;1458;49.728;9.228;2023-07-29T09:11:45;21.00;99.90
2897;DHT22;1458;49.728;9.228;2023-07-29T09:14:13;20.90;99.90
2897;DHT22;1458;49.728;9.228;2023-07-29T09:16:41;20.80;99.90
2897;DHT22;1458;49.728;9.228;2023-07-29T09:19:09;20.90;99.90
2897;DHT22;1458;49.728;9.228;2023-07-29T09:21:39;21.10;99.90
2897;DHT22;1458;49.728;9.228;2023-07-29T09:24:09;21.30;99.90
2897;DHT22;1458;49.728;9.228;2023-07-29T09:26:38;21.60;99.90
2897;DHT22;1458;49.728;9.228;2023-07-29T09:29:07;21.50;99.90
2897;DHT22;1458;49.728;9.228;2023-07-29T09:31:35;21.10;99.90
2897;DHT22;1458;49.728;9.228;2023-07-29T09:34:03;20.90;99.90
2897;DHT22;1458;49.728;9.228;2023-07-29T09:36:33;20.80;99.90
2897;DHT22;1458;49.728;9.228;2023-07-29T09:39:02;21.00;99.90
2897;DHT22;1458;49.728;9.228;2023-07-29T09:41:31;21.20;99.90
2897;DHT22;1458;49.728;9.228;2023-07-29T09:44:00;21.30;99.90
2897;DHT22;1458;49.728;9.228;2023-07-29T09:46:32;21.40;99.90
2897;DHT22;1458;49.728;9.228;2023-07-29T09:49:04;21.50;99.90
2897;DHT22;1458;49.728;9.228;2023-07-29T09:51:37;21.60;99.90
2897;DHT22;1458;49.728;9.228;2023-07-29T09:54:05;21.80;99.90
2897;DHT22;1458;49.728;9.228;2023-07-29T09:56:40;21.80;99.90
2897;DHT22;1458;49.728;9.228;2023-07-29T09:59:08;21.90;99.90
2897;DHT22;1458;49.728;9.228;2023-07-29T10:01:37;22.00;99.90
2897;DHT22;1458;49.728;9.228;2023-07-29T10:04:05;22.10;99.90
2897;DHT22;1458;49.728;9.228;2023-07-29T10:06:34;22.40;99.90
2897;DHT22;1458;49.728;9.228;2023-07-29T10:09:02;22.60;99.90
2897;DHT22;1458;49.728;9.228;2023-07-29T10:11:30;22.60;99.90
2897;DHT22;1458;49.728;9.228;2023-07-29T10:14:00;22.60;99.90
2897;DHT22;1458;49.728;9.228;2023-07-29T10:16:29;22.80;99.90
2897;DHT22;1458;49.728;9.228;2023-07-29T10:18:57;23.30;99.90
2897;DHT22;1458;49.728;9.228;2023-07-29T10:21:24;23.70;99.90
2897;DHT22;1458;49.728;9.228;2023-07-29T10:23:53;23.80;99.90
2897;DHT22;1458;49.728;9.228;2023-07-29T10:26:25;23.60;99.90
2897;DHT22;1458;49.728;9.228;2023-07-29T10:28:54;23.40;99.90
2897;DHT22;1458;49.728;9.228;2023-07-29T10:31:31;23.50;99.90
2897;DHT22;1458;49.728;9.228;2023-07-29T10:33:59;23.50;99.90
2897;DHT22;1458;49.728;9.228;2023-07-29T10:36:28;23.70;99.90
2897;DHT22;1458;49.728;9.228;2023-07-29T10:38:55;23.70;99.90
2897;DHT22;1458;49.728;9.228;2023-07-29T10:41:23;23.90;99.90
2897;DHT22;1458;49.728;9.228;2023-07-29T10:43:50;23.80;99.90
2897;DHT22;1458;49.728;9.228;2023-07-29T10:46:20;24.10;99.90
2897;DHT22;1458;49.728;9.228;2023-07-29T10:48:53;24.00;99.90
2897;DHT22;1458;49.728;9.228;2023-07-29T10:51:26;24.00;99.90
2897;DHT22;1458;49.728;9.228;2023-07-29T10:53:57;24.10;99.90
2897;DHT22;1458;49.728;9.228;2023-07-29T10:56:27;24.40;99.90
2897;DHT22;1458;49.728;9.228;2023-07-29T11:02:01;24.90;99.20
2897;DHT22;1458;49.728;9.228;2023-07-29T11:04:30;24.70;96.90
2897;DHT22;1458;49.728;9.228;2023-07-29T11:07:20;24.70;97.70
2897;DHT22;1458;49.728;9.228;2023-07-29T11:10:02;24.70;98.20
2897;DHT22;1458;49.728;9.228;2023-07-29T11:12:42;24.40;95.60
2897;DHT22;1458;49.728;9.228;2023-07-29T11:15:22;24.00;94.60
2897;DHT22;1458;49.728;9.228;2023-07-29T11:17:53;24.00;92.90
2897;DHT22;1458;49.728;9.228;2023-07-29T11:20:22;24.20;94.00
2897;DHT22;1458;49.728;9.228;2023-07-29T11:22:50;24.30;92.10
2897;DHT22;1458;49.728;9.228;2023-07-29T11:25:18;24.10;90.40
2897;DHT22;1458;49.728;9.228;2023-07-29T11:27:46;24.20;91.60
2897;DHT22;1458;49.728;9.228;2023-07-29T11:30:15;24.40;91.50
2897;DHT22;1458;49.728;9.228;2023-07-29T11:32:43;24.50;91.30
2897;DHT22;1458;49.728;9.228;2023-07-29T11:35:14;24.40;90.70
2897;DHT22;1458;49.728;9.228;2023-07-29T11:37:44;24.60;89.90
2897;DHT22;1458;49.728;9.228;2023-07-29T11:40:14;24.70;88.20
2897;DHT22;1458;49.728;9.228;2023-07-29T11:42:43;24.70;85.80
2897;DHT22;1458;49.728;9.228;2023-07-29T11:45:11;24.10;84.80
2897;DHT22;1458;49.728;9.228;2023-07-29T11:47:39;23.80;85.50
2897;DHT22;1458;49.728;9.228;2023-07-29T11:50:07;24.00;87.60
2897;DHT22;1458;49.728;9.228;2023-07-29T11:52:38;24.00;89.20
2897;DHT22;1458;49.728;9.228;2023-07-29T11:55:07;24.10;87.70
2897;DHT22;1458;49.728;9.228;2023-07-29T11:57:36;24.10;89.20
2897;DHT22;1458;49.728;9.228;2023-07-29T12:00:09;24.30;87.30
2897;DHT22;1458;49.728;9.228;2023-07-29T12:02:40;24.50;85.00
2897;DHT22;1458;49.728;9.228;2023-07-29T12:05:10;24.70;87.00
2897;DHT22;1458;49.728;9.228;2023-07-29T12:07:42;25.00;88.30
2897;DHT22;1458;49.728;9.228;2023-07-29T12:10:10;25.30;85.80
2897;DHT22;1458;49.728;9.228;2023-07-29T12:12:44;25.00;84.40
2897;DHT22;1458;49.728;9.228;2023-07-29T12:15:12;24.60;85.30
2897;DHT22;1458;49.728;9.228;2023-07-29T12:17:40;24.60;88.20
2897;DHT22;1458;49.728;9.228;2023-07-29T12:20:09;24.60;87.60
2897;DHT22;1458;49.728;9.228;2023-07-29T12:22:37;24.70;90.20
2897;DHT22;1458;49.728;9.228;2023-07-29T12:25:09;25.00;90.00
2897;DHT22;1458;49.728;9.228;2023-07-29T12:27:37;25.20;90.30
2897;DHT22;1458;49.728;9.228;2023-07-29T12:30:06;25.40;90.50
2897;DHT22;1458;49.728;9.228;2023-07-29T12:32:43;25.60;89.80
2897;DHT22;1458;49.728;9.228;2023-07-29T12:35:11;25.30;88.20
2897;DHT22;1458;49.728;9.228;2023-07-29T12:37:38;24.90;90.30
2897;DHT22;1458;49.728;9.228;2023-07-29T12:40:21;24.90;90.00
2897;DHT22;1458;49.728;9.228;2023-07-29T12:42:50;25.40;91.00
2897;DHT22;1458;49.728;9.228;2023-07-29T12:45:18;25.50;90.80
2897;DHT22;1458;49.728;9.228;2023-07-29T12:47:48;26.00;88.10
2897;DHT22;1458;49.728;9.228;2023-07-29T12:50:16;26.30;86.00
2897;DHT22;1458;49.728;9.228;2023-07-29T12:52:44;26.40;82.50
2897;DHT22;1458;49.728;9.228;2023-07-29T12:55:12;26.60;84.70
2897;DHT22;1458;49.728;9.228;2023-07-29T12:57:41;26.50;82.30
2897;DHT22;1458;49.728;9.228;2023-07-29T13:00:10;26.70;82.80
2897;DHT22;1458;49.728;9.228;2023-07-29T13:02:39;26.60;81.70
2897;DHT22;1458;49.728;9.228;2023-07-29T13:05:10;26.60;81.70
2897;DHT22;1458;49.728;9.228;2023-07-29T13:07:38;26.60;81.40
2897;DHT22;1458;49.728;9.228;2023-07-29T13:10:06;26.80;81.80
2897;DHT22;1458;49.728;9.228;2023-07-29T13:12:36;26.80;81.20
2897;DHT22;1458;49.728;9.228;2023-07-29T13:15:04;26.80;80.00
2897;DHT22;1458;49.728;9.228;2023-07-29T13:17:33;26.80;80.80
2897;DHT22;1458;49.728;9.228;2023-07-29T13:20:00;27.10;79.20
2897;DHT22;1458;49.728;9.228;2023-07-29T13:22:28;27.20;75.70
2897;DHT22;1458;49.728;9.228;2023-07-29T13:24:55;27.10;75.90
2897;DHT22;1458;49.728;9.228;2023-07-29T13:27:23;27.10;72.90
2897;DHT22;1458;49.728;9.228;2023-07-29T13:29:52;27.10;73.30
2897;DHT22;1458;49.728;9.228;2023-07-29T13:32:19;27.00;70.80
2897;DHT22;1458;49.728;9.228;2023-07-29T13:34:47;26.60;70.10
2897;DHT22;1458;49.728;9.228;2023-07-29T13:37:14;26.30;69.70
2897;DHT22;1458;49.728;9.228;2023-07-29T13:39:42;26.70;69.40
2897;DHT22;1458;49.728;9.228;2023-07-29T13:42:09;26.70;68.00
2897;DHT22;1458;49.728;9.228;2023-07-29T13:44:37;26.70;69.70
2897;DHT22;1458;49.728;9.228;2023-07-29T13:47:06;26.90;64.90
2897;DHT22;1458;49.728;9.228;2023-07-29T13:49:34;26.70;66.70
2897;DHT22;1458;49.728;9.228;2023-07-29T13:52:01;26.80;64.90
2897;DHT22;1458;49.728;9.228;2023-07-29T13:54:29;26.80;64.20
2897;DHT22;1458;49.728;9.228;2023-07-29T13:56:56;26.90;64.30
2897;DHT22;1458;49.728;9.228;2023-07-29T13:59:23;27.10;65.40
2897;DHT22;1458;49.728;9.228;2023-07-29T14:01:51;27.20;60.70
2897;DHT22;1458;49.728;9.228;2023-07-29T14:04:20;27.10;62.60
2897;DHT22;1458;49.728;9.228;2023-07-29T14:06:48;26.70;60.50
2897;DHT22;1458;49.728;9.228;2023-07-29T14:09:15;26.70;59.30
2897;DHT22;1458;49.728;9.228;2023-07-29T14:11:42;26.30;53.70
2897;DHT22;1458;49.728;9.228;2023-07-29T14:14:10;25.70;51.80
2897;DHT22;1458;49.728;9.228;2023-07-29T14:16:37;25.80;52.00
2897;DHT22;1458;49.728;9.228;2023-07-29T14:19:06;26.00;51.60
2897;DHT22;1458;49.728;9.228;2023-07-29T14:21:35;26.30;52.30
2897;DHT22;1458;49.728;9.228;2023-07-29T14:24:02;26.50;50.20
2897;DHT22;1458;49.728;9.228;2023-07-29T14:26:30;26.70;48.90
2897;DHT22;1458;49.728;9.228;2023-07-29T14:29:00;26.50;49.60
2897;DHT22;1458;49.728;9.228;2023-07-29T14:31:27;26.60;45.90
2897;DHT22;1458;49.728;9.228;2023-07-29T14:33:55;26.80;44.10
2897;DHT22;1458;49.728;9.228;2023-07-29T14:36:22;26.70;42.80
2897;DHT22;1458;49.728;9.228;2023-07-29T14:38:51;26.70;44.00
2897;DHT22;1458;49.728;9.228;2023-07-29T14:41:19;26.80;43.50
2897;DHT22;1458;49.728;9.228;2023-07-29T14:43:46;26.80;44.00
2897;DHT22;1458;49.728;9.228;2023-07-29T14:46:14;26.80;43.40
2897;DHT22;1458;49.728;9.228;2023-07-29T14:48:41;26.50;44.20
2897;DHT22;1458;49.728;9.228;2023-07-29T14:51:09;26.60;43.60
2897;DHT22;1458;49.728;9.228;2023-07-29T14:53:37;27.00;45.20
2897;DHT22;1458;49.728;9.228;2023-07-29T14:56:06;26.90;45.10
2897;DHT22;1458;49.728;9.228;2023-07-29T14:58:33;27.00;45.80
2897;DHT22;1458;49.728;9.228;2023-07-29T15:01:01;26.80;41.90
2897;DHT22;1458;49.728;9.228;2023-07-29T15:03:28;26.80;40.80
2897;DHT22;1458;49.728;9.228;2023-07-29T15:05:56;26.70;42.80
2897;DHT22;1458;49.728;9.228;2023-07-29T15:08:24;26.50;41.50
2897;DHT22;1458;49.728;9.228;2023-07-29T15:10:52;26.50;42.10
2897;DHT22;1458;49.728;9.228;2023-07-29T15:13:22;26.50;45.60
2897;DHT22;1458;49.728;9.228;2023-07-29T15:15:49;26.60;44.00
2897;DHT22;1458;49.728;9.228;2023-07-29T15:18:17;26.90;44.50
2897;DHT22;1458;49.728;9.228;2023-07-29T15:20:44;27.00;41.80
2897;DHT22;1458;49.728;9.228;2023-07-29T15:23:12;26.80;43.00
2897;DHT22;1458;49.728;9.228;2023-07-29T15:25:41;26.80;45.50
2897;DHT22;1458;49.728;9.228;2023-07-29T15:28:08;26.60;46.40
2897;DHT22;1458;49.728;9.228;2023-07-29T15:30:37;26.80;46.50
2897;DHT22;1458;49.728;9.228;2023-07-29T15:33:05;26.80;46.70
2897;DHT22;1458;49.728;9.228;2023-07-29T15:35:37;26.80;47.60
2897;DHT22;1458;49.728;9.228;2023-07-29T15:38:05;26.70;45.20
2897;DHT22;1458;49.728;9.228;2023-07-29T15:40:33;26.50;45.30
2897;DHT22;1458;49.728;9.228;2023-07-29T15:43:00;26.30;47.90
2897;DHT22;1458;49.728;9.228;2023-07-29T15:45:28;26.40;51.60
2897;DHT22;1458;49.728;9.228;2023-07-29T15:47:57;26.50;49.50
2897;DHT22;1458;49.728;9.228;2023-07-29T15:50:24;26.70;49.80
2897;DHT22;1458;49.728;9.228;2023-07-29T15:52:52;26.80;47.60
2897;DHT22;1458;49.728;9.228;2023-07-29T15:55:20;26.80;46.30
2897;DHT22;1458;49.728;9.228;2023-07-29T15:57:47;26.70;48.70
2897;DHT22;1458;49.728;9.228;2023-07-29T16:00:16;26.70;47.40
2897;DHT22;1458;49.728;9.228;2023-07-29T16:02:44;26.80;47.70
2897;DHT22;1458;49.728;9.228;2023-07-29T16:05:12;26.50;48.20
2897;DHT22;1458;49.728;9.228;2023-07-29T16:07:40;26.10;49.20
2897;DHT22;1458;49.728;9.228;2023-07-29T16:10:08;25.80;51.90
2897;DHT22;1458;49.728;9.228;2023-07-29T16:12:36;25.80;51.80
2897;DHT22;1458;49.728;9.228;2023-07-29T16:15:04;25.90;52.00